createdAt,value
2018-09-18T00:00:42.818Z,3.00
2018-09-18T00:03:46.107Z,3.10
2018-09-18T00:06:49.327Z,3.50
2018-09-18T00:09:52.553Z,3.27
2018-09-18T00:12:55.718Z,3.70
2018-09-18T00:15:58.889Z,3.83
2018-09-18T00:19:02.218Z,3.47
2018-09-18T00:22:05.679Z,3.90
2018-09-18T00:25:08.913Z,2.93
2018-09-18T00:28:12.234Z,3.30
2018-09-18T00:31:15.449Z,3.13
2018-09-18T00:34:18.668Z,3.63
2018-09-18T00:37:22.067Z,3.10
2018-09-18T00:40:25.144Z,3.70
2018-09-18T00:43:28.378Z,3.27
2018-09-18T00:46:31.477Z,3.80
2018-09-18T00:49:34.681Z,3.50
2018-09-18T00:52:37.957Z,3.20
2018-09-18T00:55:41.139Z,3.20
2018-09-18T00:58:44.397Z,3.57
2018-09-18T01:01:47.639Z,3.30
2018-09-18T01:04:51.358Z,3.10
2018-09-18T01:07:54.658Z,3.73
2018-09-18T01:10:57.859Z,3.53
2018-09-18T01:14:01.041Z,3.27
2018-09-18T01:17:04.601Z,2.83
2018-09-18T01:20:07.868Z,3.00
2018-09-18T01:23:11.157Z,3.20
2018-09-18T01:26:14.619Z,3.20
2018-09-18T01:29:17.906Z,3.30
2018-09-18T01:32:21.106Z,3.50
2018-09-18T01:35:24.243Z,3.23
2018-09-18T01:38:27.515Z,3.40
2018-09-18T01:41:30.738Z,3.20
2018-09-18T01:44:34.317Z,3.60
2018-09-18T01:47:37.538Z,4.13
2018-09-18T01:50:40.752Z,3.47
2018-09-18T01:53:43.880Z,3.83
2018-09-18T01:56:47.084Z,3.53
2018-09-18T01:59:51.189Z,2.93
2018-09-18T02:02:54.322Z,3.37
2018-09-18T02:05:57.811Z,3.33
2018-09-18T02:09:00.846Z,3.90
2018-09-18T02:12:04.062Z,3.30
2018-09-18T02:15:07.298Z,4.23
2018-09-18T02:18:10.525Z,3.60
2018-09-18T02:21:13.701Z,3.30
2018-09-18T02:24:16.926Z,3.80
2018-09-18T02:27:19.967Z,3.70
2018-09-18T02:31:26.313Z,3.50
2018-09-18T02:34:29.377Z,3.63
2018-09-18T02:37:32.604Z,3.63
2018-09-18T02:40:35.736Z,3.63
2018-09-18T02:43:39.154Z,3.60
2018-09-18T02:46:42.381Z,3.73
2018-09-18T02:49:45.509Z,3.50
2018-09-18T02:52:48.653Z,3.40
2018-09-18T02:55:51.832Z,3.93
2018-09-18T02:58:55.252Z,3.80
2018-09-18T03:01:58.416Z,4.03
2018-09-18T03:05:01.579Z,3.60
2018-09-18T03:08:04.721Z,3.90
2018-09-18T03:11:08.871Z,3.70
2018-09-18T03:14:12.222Z,3.73
2018-09-18T03:17:15.446Z,3.70
2018-09-18T03:20:18.613Z,3.67
2018-09-18T03:23:22.026Z,3.90
2018-09-18T03:26:25.142Z,3.43
2018-09-18T03:30:32.396Z,3.50
2018-09-18T03:33:35.507Z,3.80
2018-09-18T03:36:38.598Z,3.60
2018-09-18T03:39:41.632Z,4.17
2018-09-18T03:42:44.778Z,3.97
2018-09-18T03:45:48.173Z,3.40
2018-09-18T03:48:51.216Z,3.70
2018-09-18T03:51:54.374Z,3.70
2018-09-18T03:54:57.417Z,3.90
2018-09-18T03:58:00.700Z,4.37
2018-09-18T04:01:03.865Z,4.17
2018-09-18T04:04:06.981Z,5.20
2018-09-18T04:07:10.138Z,4.70
2018-09-18T04:14:20.468Z,4.97
2018-09-18T04:17:23.748Z,4.37
2018-09-18T04:20:26.837Z,4.63
2018-09-18T04:23:30.203Z,4.80
2018-09-18T04:26:33.402Z,5.20
2018-09-18T04:29:36.673Z,5.10
2018-09-18T04:32:39.706Z,4.83
2018-09-18T04:35:42.885Z,5.13
2018-09-18T04:38:45.986Z,4.70
2018-09-18T04:41:49.033Z,4.80
2018-09-18T04:44:52.332Z,5.10
2018-09-18T04:47:55.383Z,5.63
2018-09-18T04:50:58.498Z,5.10
2018-09-18T04:54:01.619Z,4.37
2018-09-18T04:57:04.916Z,5.20
2018-09-18T05:00:08.459Z,5.43
2018-09-18T05:03:11.744Z,5.37
2018-09-18T05:06:14.856Z,5.00
2018-09-18T05:09:18.061Z,4.50
2018-09-18T05:12:21.097Z,5.47
2018-09-18T05:15:24.190Z,4.97
2018-09-18T05:18:27.272Z,5.40
2018-09-18T05:21:30.336Z,5.17
2018-09-18T05:24:33.456Z,5.10
2018-09-18T05:27:37.512Z,5.43
2018-09-18T05:30:40.517Z,5.57
2018-09-18T05:33:43.691Z,6.33
2018-09-18T05:36:46.783Z,6.07
2018-09-18T05:39:49.950Z,5.40
2018-09-18T05:42:53.021Z,5.57
2018-09-18T05:45:56.054Z,5.50
2018-09-18T05:48:59.093Z,5.03
2018-09-18T05:52:02.237Z,4.60
2018-09-18T05:55:05.627Z,4.37
2018-09-18T05:58:08.781Z,4.33
2018-09-18T06:01:11.888Z,4.47
2018-09-18T06:04:15.014Z,4.87
2018-09-18T06:07:18.377Z,16.63
2018-09-18T06:10:21.478Z,4.57
2018-09-18T06:13:24.657Z,7.47
2018-09-18T06:16:27.790Z,6.27
2018-09-18T06:19:30.950Z,5.13
2018-09-18T06:22:34.137Z,5.23
2018-09-18T06:25:37.225Z,4.93
2018-09-18T06:28:40.528Z,5.03
2018-09-18T06:31:43.705Z,5.47
2018-09-18T06:34:46.795Z,3.83
2018-09-18T06:37:49.875Z,3.93
2018-09-18T06:40:53.007Z,5.13
2018-09-18T06:43:56.130Z,5.07
2018-09-18T06:46:59.273Z,5.07
2018-09-18T06:50:02.689Z,5.37
2018-09-18T06:53:06.414Z,5.50
2018-09-18T06:56:09.648Z,5.73
2018-09-18T06:59:12.883Z,6.30
2018-09-18T07:02:16.119Z,7.10
2018-09-18T07:05:19.283Z,6.60
2018-09-18T07:08:23.619Z,6.47
2018-09-18T07:11:26.868Z,6.07
2018-09-18T07:14:29.958Z,5.73
2018-09-18T07:17:33.170Z,5.60
2018-09-18T07:20:36.334Z,5.47
2018-09-18T07:23:39.771Z,6.03
2018-09-18T07:26:43.075Z,6.30
2018-09-18T07:29:46.330Z,5.80
2018-09-18T07:32:49.431Z,6.27
2018-09-18T07:35:52.555Z,6.80
2018-09-18T07:38:55.724Z,6.63
2018-09-18T07:41:58.828Z,6.57
2018-09-18T07:48:15.673Z,5.70
2018-09-18T07:51:18.916Z,6.07
2018-09-18T07:54:21.973Z,7.00
2018-09-18T07:57:25.112Z,6.07
2018-09-18T08:00:28.238Z,5.87
2018-09-18T08:03:31.544Z,6.03
2018-09-18T08:06:34.814Z,7.10
2018-09-18T08:09:38.047Z,6.37
2018-09-18T08:12:41.267Z,5.43
2018-09-18T08:15:44.933Z,5.97
2018-09-18T08:18:49.178Z,5.93
2018-09-18T08:21:52.418Z,6.07
2018-09-18T08:24:55.578Z,6.03
2018-09-18T08:27:58.672Z,6.60
2018-09-18T08:31:01.768Z,5.17
2018-09-18T08:34:04.897Z,5.40
2018-09-18T08:37:07.919Z,5.50
2018-09-18T08:40:11.227Z,5.50
2018-09-18T08:43:14.378Z,5.00
2018-09-18T08:46:17.519Z,5.47
2018-09-18T08:49:20.585Z,5.93
2018-09-18T08:52:23.749Z,5.03
2018-09-18T08:55:27.663Z,5.03
2018-09-18T08:58:30.846Z,4.80
2018-09-18T09:01:33.843Z,7.67
2018-09-18T09:04:37.015Z,4.87
2018-09-18T09:07:40.359Z,4.60
2018-09-18T09:10:43.523Z,4.67
2018-09-18T09:13:46.705Z,4.37
2018-09-18T09:16:49.918Z,4.60
2018-09-18T09:19:53.372Z,4.40
2018-09-18T09:22:56.613Z,4.87
2018-09-18T09:25:59.623Z,4.50
2018-09-18T09:29:02.742Z,3.97
2018-09-18T09:32:06.068Z,4.07
2018-09-18T09:35:09.090Z,4.00
2018-09-18T09:38:12.251Z,4.00
2018-09-18T09:41:15.286Z,4.33
2018-09-18T09:44:18.303Z,3.60
2018-09-18T09:47:21.425Z,3.67
2018-09-18T09:50:24.567Z,3.90
2018-09-18T09:53:27.625Z,3.53
2018-09-18T09:56:30.796Z,3.80
2018-09-18T09:59:34.326Z,3.70
2018-09-18T10:02:43.206Z,3.60
2018-09-18T10:05:46.401Z,3.80
2018-09-18T10:08:49.531Z,3.37
2018-09-18T10:11:52.846Z,3.80
2018-09-18T10:14:56.201Z,3.93
2018-09-18T10:17:59.606Z,3.60
2018-09-18T10:21:02.626Z,3.93
2018-09-18T10:24:06.243Z,3.70
2018-09-18T10:27:09.554Z,4.00
2018-09-18T10:30:12.675Z,3.60
2018-09-18T10:33:15.844Z,3.80
2018-09-18T10:36:19.010Z,4.00
2018-09-18T10:39:22.217Z,3.30
2018-09-18T10:42:25.507Z,3.70
2018-09-18T10:45:28.703Z,4.07
2018-09-18T10:48:36.416Z,3.70
2018-09-18T10:51:39.774Z,3.60
2018-09-18T10:54:42.891Z,3.83
2018-09-18T10:57:45.992Z,3.20
2018-09-18T11:00:49.544Z,3.53
2018-09-18T11:03:52.767Z,4.00
2018-09-18T11:06:56.056Z,4.00
2018-09-18T11:09:59.348Z,3.80
2018-09-18T11:13:02.569Z,3.57
2018-09-18T11:16:06.335Z,3.87
2018-09-18T11:19:11.292Z,3.80
2018-09-18T11:22:14.630Z,3.80
2018-09-18T11:25:17.905Z,4.00
2018-09-18T11:28:21.015Z,4.27
2018-09-18T11:31:24.178Z,4.10
2018-09-18T11:34:27.371Z,4.33
2018-09-18T11:37:30.509Z,4.13
2018-09-18T11:40:34.062Z,4.10
2018-09-18T11:43:38.490Z,4.47
2018-09-18T11:46:41.804Z,4.07
2018-09-18T11:49:46.066Z,3.83
2018-09-18T11:52:49.467Z,4.33
2018-09-18T11:55:52.735Z,3.70
2018-09-18T11:58:56.011Z,4.37
2018-09-18T12:01:59.211Z,4.13
2018-09-18T12:05:02.384Z,4.17
2018-09-18T12:08:05.620Z,4.30
2018-09-18T12:11:08.994Z,4.00
2018-09-18T12:14:12.195Z,4.10
2018-09-18T12:17:15.411Z,4.47
2018-09-18T12:20:18.555Z,4.73
2018-09-18T12:23:21.666Z,3.90
2018-09-18T12:26:24.838Z,4.00
2018-09-18T12:29:27.939Z,4.10
2018-09-18T12:32:31.238Z,4.03
2018-09-18T12:35:35.001Z,4.30
2018-09-18T12:38:38.313Z,4.10
2018-09-18T12:41:42.328Z,4.40
2018-09-18T12:44:45.622Z,3.97
2018-09-18T12:47:49.581Z,4.10
2018-09-18T12:50:52.926Z,4.20
2018-09-18T12:53:56.132Z,4.37
2018-09-18T12:56:59.796Z,4.20
2018-09-18T13:00:03.181Z,4.03
2018-09-18T13:03:07.404Z,4.17
2018-09-18T13:06:10.618Z,4.10
2018-09-18T13:09:13.770Z,3.97
2018-09-18T13:12:16.914Z,4.20
2018-09-18T13:15:20.163Z,3.63
2018-09-18T13:18:23.349Z,4.20
2018-09-18T13:21:26.758Z,4.30
2018-09-18T13:24:29.826Z,3.80
2018-09-18T13:27:33.816Z,4.43
2018-09-18T13:30:37.089Z,3.87
2018-09-18T13:33:40.719Z,4.30
2018-09-18T13:36:43.968Z,4.47
2018-09-18T13:39:47.123Z,3.90
2018-09-18T13:42:50.256Z,4.27
2018-09-18T13:45:53.472Z,4.13
2018-09-18T13:48:56.620Z,3.93
2018-09-18T13:51:59.850Z,4.10
2018-09-18T13:55:03.002Z,3.67
2018-09-18T13:58:06.192Z,3.60
2018-09-18T14:01:09.497Z,4.13
2018-09-18T14:04:13.161Z,4.23
2018-09-18T14:07:17.285Z,4.43
2018-09-18T14:10:21.314Z,3.83
2018-09-18T14:13:25.149Z,4.33
2018-09-18T14:16:29.327Z,4.13
2018-09-18T14:19:33.283Z,4.40
2018-09-18T14:22:37.400Z,3.80
2018-09-18T14:25:41.964Z,4.53
2018-09-18T14:28:46.100Z,3.90
2018-09-18T14:31:50.222Z,4.60
2018-09-18T14:34:54.720Z,4.10
2018-09-18T14:37:58.586Z,4.53
2018-09-18T14:41:02.569Z,3.70
2018-09-18T14:44:05.739Z,4.23
2018-09-18T14:47:08.837Z,3.77
2018-09-18T14:50:12.187Z,3.80
2018-09-18T14:53:15.157Z,4.40
2018-09-18T14:56:18.252Z,4.43
2018-09-18T14:59:21.372Z,3.93
2018-09-18T15:02:24.608Z,4.20
2018-09-18T15:05:27.730Z,4.10
2018-09-18T15:09:34.505Z,4.23
2018-09-18T15:12:37.651Z,3.80
2018-09-18T15:15:40.911Z,3.33
2018-09-18T15:18:43.994Z,3.90
2018-09-18T15:21:47.141Z,4.53
2018-09-18T15:24:50.164Z,3.93
2018-09-18T15:27:53.358Z,3.63
2018-09-18T15:30:56.475Z,4.10
2018-09-18T15:33:59.817Z,4.23
2018-09-18T15:37:02.902Z,3.90
2018-09-18T15:40:06.098Z,4.13
2018-09-18T15:43:10.414Z,4.23
2018-09-18T15:46:14.237Z,3.80
2018-09-18T15:49:17.479Z,3.77
2018-09-18T15:52:20.769Z,3.20
2018-09-18T15:55:24.029Z,2.43
2018-09-18T15:58:28.898Z,2.30
2018-09-18T16:01:32.127Z,2.17
2018-09-18T16:04:35.178Z,2.33
2018-09-18T16:07:38.299Z,2.60
2018-09-18T16:10:41.647Z,2.50
2018-09-18T16:13:44.882Z,3.33
2018-09-18T16:16:48.256Z,2.90
2018-09-18T16:19:51.415Z,3.30
2018-09-18T16:22:54.632Z,3.30
2018-09-18T16:25:57.795Z,3.37
2018-09-18T16:29:00.974Z,2.93
2018-09-18T16:32:04.128Z,3.27
2018-09-18T16:35:07.477Z,2.80
2018-09-18T16:38:10.723Z,3.20
2018-09-18T16:41:13.845Z,3.00
2018-09-18T16:44:17.179Z,3.40
2018-09-18T16:47:20.374Z,3.10
2018-09-18T16:50:23.507Z,3.10
2018-09-18T16:53:26.734Z,3.07
2018-09-18T16:56:30.680Z,2.97
2018-09-18T16:59:33.854Z,2.90
2018-09-18T17:02:37.263Z,2.70
2018-09-18T17:05:40.463Z,3.63
2018-09-18T17:08:43.580Z,3.07
2018-09-18T17:11:46.839Z,2.90
2018-09-18T17:14:49.945Z,2.60
2018-09-18T17:17:53.045Z,2.73
2018-09-18T17:20:56.297Z,2.97
2018-09-18T17:23:59.487Z,3.23
2018-09-18T17:27:02.619Z,2.40
2018-09-18T17:30:06.218Z,2.80
2018-09-18T17:33:09.271Z,3.10
2018-09-18T17:36:12.396Z,2.73
2018-09-18T17:39:15.567Z,2.33
2018-09-18T17:42:18.772Z,2.63
2018-09-18T17:45:22.087Z,2.90
2018-09-18T17:48:25.213Z,3.07
2018-09-18T17:51:28.333Z,5.67
2018-09-18T17:54:31.460Z,5.50
2018-09-18T17:57:34.582Z,7.27
2018-09-18T18:00:37.986Z,3.13
2018-09-18T18:03:41.314Z,5.50
2018-09-18T18:06:44.431Z,3.90
2018-09-18T18:09:47.828Z,5.17
2018-09-18T18:12:50.993Z,3.47
2018-09-18T18:15:54.170Z,4.90
2018-09-18T18:18:57.335Z,3.03
2018-09-18T18:22:00.784Z,3.40
2018-09-18T18:25:03.947Z,6.10
2018-09-18T18:28:07.209Z,7.40
2018-09-18T18:31:10.420Z,4.90
2018-09-18T18:34:13.635Z,4.70
2018-09-18T18:37:16.925Z,6.60
2018-09-18T18:40:20.170Z,5.47
2018-09-18T18:43:23.511Z,5.83
2018-09-18T18:46:26.610Z,3.60
2018-09-18T18:49:36.130Z,3.30
2018-09-18T18:52:39.241Z,3.30
2018-09-18T18:55:42.436Z,3.10
2018-09-18T18:58:45.668Z,3.10
2018-09-18T19:01:48.716Z,3.30
2018-09-18T19:04:51.833Z,2.90
2018-09-18T19:07:55.093Z,3.27
2018-09-18T19:10:58.263Z,3.13
2018-09-18T19:14:01.417Z,3.13
2018-09-18T19:17:04.468Z,2.90
2018-09-18T19:20:07.959Z,3.33
2018-09-18T19:23:11.263Z,2.70
2018-09-18T19:26:14.701Z,3.03
2018-09-18T19:29:17.731Z,2.93
2018-09-18T19:32:21.014Z,3.40
2018-09-18T19:35:27.843Z,3.40
2018-09-18T19:38:31.179Z,3.70
2018-09-18T19:41:34.376Z,3.50
2018-09-18T19:44:37.735Z,3.50
2018-09-18T19:47:40.843Z,3.57
2018-09-18T19:50:44.187Z,3.40
2018-09-18T19:53:47.382Z,3.50
2018-09-18T19:56:50.593Z,3.50
2018-09-18T19:59:53.703Z,3.10
2018-09-18T20:02:56.968Z,3.20
2018-09-18T20:06:00.257Z,3.57
2018-09-18T20:09:05.151Z,3.50
2018-09-18T20:12:08.332Z,3.10
2018-09-18T20:15:11.581Z,2.47
2018-09-18T20:18:14.760Z,2.97
2018-09-18T20:21:17.899Z,3.13
2018-09-18T20:24:21.059Z,2.80
2018-09-18T20:27:24.119Z,4.10
2018-09-18T20:30:27.327Z,3.30
2018-09-18T20:33:30.472Z,3.17
2018-09-18T20:36:33.619Z,3.10
2018-09-18T20:39:36.873Z,3.17
2018-09-18T20:42:40.244Z,2.70
2018-09-18T20:45:43.718Z,2.70
2018-09-18T20:48:46.875Z,2.90
2018-09-18T20:51:50.032Z,2.90
2018-09-18T20:54:53.280Z,3.00
2018-09-18T20:57:56.487Z,3.43
2018-09-18T21:00:59.685Z,2.70
2018-09-18T21:04:02.872Z,2.50
2018-09-18T21:07:05.970Z,2.83
2018-09-18T21:10:09.082Z,2.47
2018-09-18T21:13:12.254Z,2.83
2018-09-18T21:16:15.405Z,2.50
2018-09-18T21:19:18.569Z,2.13
2018-09-18T21:22:21.732Z,2.20
2018-09-18T21:26:03.639Z,2.10
2018-09-18T21:29:06.837Z,2.00
2018-09-18T21:32:09.948Z,2.33
2018-09-18T21:35:13.128Z,2.00
2018-09-18T21:38:16.318Z,2.07
2018-09-18T21:41:19.434Z,2.37
2018-09-18T21:44:22.691Z,2.20
2018-09-18T21:47:26.158Z,2.57
2018-09-18T21:50:31.558Z,1.90
2018-09-18T21:53:34.955Z,1.93
2018-09-18T21:56:38.066Z,2.20
2018-09-18T21:59:41.211Z,2.00
2018-09-18T22:02:44.399Z,1.73
2018-09-18T22:05:47.623Z,2.20
2018-09-18T22:08:50.783Z,2.03
2018-09-18T22:11:53.983Z,1.77
2018-09-18T22:14:57.182Z,1.90
2018-09-18T22:18:00.390Z,1.90
2018-09-18T22:21:03.570Z,1.70
2018-09-18T22:24:06.791Z,1.73
2018-09-18T22:27:10.063Z,1.97
2018-09-18T22:30:13.236Z,2.00
2018-09-18T22:33:16.367Z,2.20
2018-09-18T22:36:19.676Z,1.80
2018-09-18T22:39:22.999Z,1.80
2018-09-18T22:42:27.284Z,1.77
2018-09-18T22:45:30.537Z,1.70
2018-09-18T22:48:33.663Z,1.67
2018-09-18T22:51:36.853Z,1.80
2018-09-18T22:54:40.020Z,1.80
2018-09-18T22:57:43.222Z,1.47
2018-09-18T23:00:46.424Z,1.57
2018-09-18T23:03:49.536Z,1.80
2018-09-18T23:06:52.601Z,1.60
2018-09-18T23:09:55.753Z,1.70
2018-09-18T23:12:58.975Z,1.77
2018-09-18T23:16:02.178Z,1.40
2018-09-18T23:19:05.354Z,1.80
2018-09-18T23:22:08.449Z,1.53
2018-09-18T23:25:11.505Z,1.77
2018-09-18T23:28:14.687Z,1.63
2018-09-18T23:31:17.895Z,2.20
2018-09-18T23:34:21.014Z,2.03
2018-09-18T23:37:24.223Z,1.93
2018-09-18T23:40:27.398Z,1.77
2018-09-18T23:43:30.584Z,1.97
2018-09-18T23:46:33.802Z,1.70
2018-09-18T23:49:36.927Z,1.70
2018-09-18T23:52:40.052Z,1.90
2018-09-18T23:55:43.250Z,1.93
2018-09-18T23:58:46.706Z,1.27
